createdAt,value
2018-12-03T00:01:45.556Z,99163.00
2018-12-03T00:04:19.157Z,99157.00
2018-12-03T00:06:48.445Z,99154.00
2018-12-03T00:09:17.710Z,99147.00
2018-12-03T00:11:46.988Z,99147.00
2018-12-03T00:14:16.220Z,99149.00
2018-12-03T00:16:45.468Z,99139.00
2018-12-03T00:19:15.147Z,99143.00
2018-12-03T00:21:44.367Z,99139.00
2018-12-03T00:24:13.698Z,99146.00
2018-12-03T00:26:43.029Z,99147.00
2018-12-03T00:29:12.262Z,99137.00
2018-12-03T00:31:41.511Z,99142.00
2018-12-03T00:34:10.769Z,99134.00
2018-12-03T00:36:40.684Z,99130.00
2018-12-03T00:39:09.792Z,99123.00
2018-12-03T00:41:38.999Z,99129.00
2018-12-03T00:44:08.320Z,99141.00
2018-12-03T00:46:37.730Z,99136.00
2018-12-03T00:49:06.901Z,99143.00
2018-12-03T00:51:36.136Z,99150.00
2018-12-03T00:54:05.954Z,99140.00
2018-12-03T00:56:35.278Z,99135.00
2018-12-03T00:59:04.472Z,99128.00
2018-12-03T01:01:34.529Z,99132.00
2018-12-03T01:04:04.724Z,99137.00
2018-12-03T01:06:33.940Z,99144.00
2018-12-03T01:09:03.380Z,99131.00
2018-12-03T01:11:32.532Z,99135.00
2018-12-03T01:14:01.749Z,99126.00
2018-12-03T01:16:30.982Z,99126.00
2018-12-03T01:19:00.210Z,99135.00
2018-12-03T01:21:29.442Z,99130.00
2018-12-03T01:23:58.721Z,99128.00
2018-12-03T01:26:27.853Z,99125.00
2018-12-03T01:28:57.012Z,99129.00
2018-12-03T01:31:26.190Z,99119.00
2018-12-03T01:33:55.330Z,99123.00
2018-12-03T01:36:24.469Z,99121.00
2018-12-03T01:38:54.166Z,99113.00
2018-12-03T01:41:23.368Z,99120.00
2018-12-03T01:43:52.489Z,99116.00
2018-12-03T01:46:21.703Z,99122.00
2018-12-03T01:48:50.887Z,99118.00
2018-12-03T01:51:20.201Z,99112.00
2018-12-03T01:53:49.451Z,99116.00
2018-12-03T01:56:18.792Z,99113.00
2018-12-03T01:58:48.011Z,99116.00
2018-12-03T02:01:17.187Z,99126.00
2018-12-03T02:03:46.448Z,99122.00
2018-12-03T02:06:15.590Z,99118.00
2018-12-03T02:08:44.824Z,99114.00
2018-12-03T02:11:14.043Z,99125.00
2018-12-03T02:13:43.398Z,99123.00
2018-12-03T02:16:12.661Z,99121.00
2018-12-03T02:18:41.910Z,99118.00
2018-12-03T02:21:11.098Z,99130.00
2018-12-03T02:23:40.307Z,99116.00
2018-12-03T02:26:09.512Z,99106.00
2018-12-03T02:28:38.743Z,99109.00
2018-12-03T02:31:08.075Z,99116.00
2018-12-03T02:33:37.350Z,99113.00
2018-12-03T02:36:06.564Z,99108.00
2018-12-03T02:38:35.814Z,99108.00
2018-12-03T02:41:05.202Z,99105.00
2018-12-03T02:43:34.445Z,99097.00
2018-12-03T02:46:03.632Z,99097.00
2018-12-03T02:48:33.152Z,99092.00
2018-12-03T02:51:02.336Z,99084.00
2018-12-03T02:53:31.584Z,99086.00
2018-12-03T02:56:00.779Z,99085.00
2018-12-03T02:58:29.982Z,99086.00
2018-12-03T03:00:59.261Z,99082.00
2018-12-03T03:03:28.717Z,99083.00
2018-12-03T03:05:57.913Z,99083.00
2018-12-03T03:08:27.166Z,99071.00
2018-12-03T03:10:56.330Z,99059.00
2018-12-03T03:13:25.491Z,99068.00
2018-12-03T03:15:54.680Z,99071.00
2018-12-03T03:18:23.865Z,99071.00
2018-12-03T03:20:53.065Z,99078.00
2018-12-03T03:23:22.361Z,99076.00
2018-12-03T03:25:51.665Z,99096.00
2018-12-03T03:28:20.936Z,99074.00
2018-12-03T03:30:50.155Z,99087.00
2018-12-03T03:33:19.469Z,99088.00
2018-12-03T03:35:48.632Z,99088.00
2018-12-03T03:38:17.773Z,99088.00
2018-12-03T03:40:47.004Z,99083.00
2018-12-03T03:43:16.376Z,99087.00
2018-12-03T03:45:45.506Z,99088.00
2018-12-03T03:48:14.726Z,99078.00
2018-12-03T03:50:43.881Z,99083.00
2018-12-03T03:53:14.486Z,99075.00
2018-12-03T03:55:43.642Z,99064.00
2018-12-03T03:58:12.851Z,99065.00
2018-12-03T04:00:42.042Z,99072.00
2018-12-03T04:03:11.173Z,99070.00
2018-12-03T04:05:40.355Z,99079.00
2018-12-03T04:08:09.545Z,99070.00
2018-12-03T04:10:38.848Z,99057.00
2018-12-03T04:13:08.002Z,99066.00
2018-12-03T04:15:37.179Z,99066.00
2018-12-03T04:18:06.648Z,99065.00
2018-12-03T04:20:35.895Z,99066.00
2018-12-03T04:23:05.220Z,99072.00
2018-12-03T04:25:34.592Z,99065.00
2018-12-03T04:28:03.819Z,99066.00
2018-12-03T04:30:33.113Z,99063.00
2018-12-03T04:33:02.258Z,99058.00
2018-12-03T04:35:31.497Z,99070.00
2018-12-03T04:38:00.658Z,99065.00
2018-12-03T04:40:29.761Z,99065.00
2018-12-03T04:42:58.905Z,99065.00
2018-12-03T04:45:28.065Z,99066.00
2018-12-03T04:47:57.395Z,99078.00
2018-12-03T04:50:26.747Z,99069.00
2018-12-03T04:52:55.883Z,99067.00
2018-12-03T04:55:25.117Z,99062.00
2018-12-03T04:57:54.208Z,99053.00
2018-12-03T05:00:28.829Z,99043.00
2018-12-03T05:02:58.020Z,99038.00
2018-12-03T05:05:27.273Z,99042.00
2018-12-03T05:07:56.480Z,99050.00
2018-12-03T05:10:25.639Z,99042.00
2018-12-03T05:12:54.889Z,99039.00
2018-12-03T05:15:24.072Z,99034.00
2018-12-03T05:17:53.362Z,99037.00
2018-12-03T05:20:24.644Z,99040.00
2018-12-03T05:22:53.900Z,99031.00
2018-12-03T05:25:23.128Z,99027.00
2018-12-03T05:27:52.824Z,99028.00
2018-12-03T05:30:21.999Z,99036.00
2018-12-03T05:32:51.330Z,99037.00
2018-12-03T05:35:25.498Z,99043.00
2018-12-03T05:37:54.898Z,99034.00
2018-12-03T05:40:26.616Z,99042.00
2018-12-03T05:42:55.921Z,99037.00
2018-12-03T05:45:25.147Z,99047.00
2018-12-03T05:47:54.226Z,99042.00
2018-12-03T05:50:23.432Z,99036.00
2018-12-03T05:52:52.679Z,99051.00
2018-12-03T05:55:21.868Z,99056.00
2018-12-03T05:57:53.864Z,99066.00
2018-12-03T06:00:29.570Z,99065.00
2018-12-03T06:02:58.712Z,99068.00
2018-12-03T06:05:27.963Z,99062.00
2018-12-03T06:07:57.148Z,99066.00
2018-12-03T06:10:26.320Z,99064.00
2018-12-03T06:12:55.458Z,99057.00
2018-12-03T06:15:24.602Z,99058.00
2018-12-03T06:17:54.009Z,99059.00
2018-12-03T06:20:23.677Z,99062.00
2018-12-03T06:22:54.044Z,99058.00
2018-12-03T06:25:24.575Z,99067.00
2018-12-03T06:27:53.721Z,99062.00
2018-12-03T06:30:23.828Z,99076.00
2018-12-03T06:32:52.964Z,99077.00
2018-12-03T06:35:22.365Z,99071.00
2018-12-03T06:37:51.621Z,99066.00
2018-12-03T06:40:25.011Z,99073.00
2018-12-03T06:42:54.123Z,99060.00
2018-12-03T06:45:23.905Z,99067.00
2018-12-03T06:48:05.952Z,99068.00
2018-12-03T06:50:35.055Z,99076.00
2018-12-03T06:53:04.136Z,99078.00
2018-12-03T06:55:33.309Z,99076.00
2018-12-03T06:58:02.405Z,99080.00
2018-12-03T07:00:31.522Z,99087.00
2018-12-03T07:03:00.519Z,99078.00
2018-12-03T07:05:29.590Z,99097.00
2018-12-03T07:07:59.659Z,99093.00
2018-12-03T07:10:28.914Z,99091.00
2018-12-03T07:13:01.064Z,99085.00
2018-12-03T07:15:33.299Z,99098.00
2018-12-03T07:18:03.027Z,99082.00
2018-12-03T07:20:32.664Z,99086.00
2018-12-03T07:23:08.449Z,99091.00
2018-12-03T07:25:38.012Z,99096.00
2018-12-03T07:28:07.738Z,99099.00
2018-12-03T07:30:37.406Z,99100.00
2018-12-03T07:33:07.351Z,99096.00
2018-12-03T07:35:37.413Z,99094.00
2018-12-03T07:38:06.867Z,99100.00
2018-12-03T07:40:36.767Z,99107.00
2018-12-03T07:43:06.783Z,99107.00
2018-12-03T07:45:36.261Z,99110.00
2018-12-03T07:48:06.582Z,99116.00
2018-12-03T07:50:36.103Z,99111.00
2018-12-03T07:53:06.442Z,99125.00
2018-12-03T07:55:35.954Z,99133.00
2018-12-03T07:58:10.032Z,99131.00
2018-12-03T08:00:42.228Z,99126.00
2018-12-03T08:03:12.094Z,99133.00
2018-12-03T08:05:41.511Z,99137.00
2018-12-03T08:08:11.055Z,99132.00
2018-12-03T08:10:42.282Z,99135.00
2018-12-03T08:13:13.296Z,99127.00
2018-12-03T08:15:42.920Z,99143.00
2018-12-03T08:18:15.314Z,99140.00
2018-12-03T08:21:04.860Z,99138.00
2018-12-03T08:23:39.183Z,99147.00
2018-12-03T08:26:13.397Z,99141.00
2018-12-03T08:28:43.192Z,99138.00
2018-12-03T08:31:12.836Z,99140.00
2018-12-03T08:33:42.596Z,99156.00
2018-12-03T08:36:12.050Z,99150.00
2018-12-03T08:38:42.199Z,99154.00
2018-12-03T08:41:11.699Z,99157.00
2018-12-03T08:43:41.620Z,99154.00
2018-12-03T08:46:11.621Z,99161.00
2018-12-03T08:48:42.835Z,99157.00
2018-12-03T08:51:13.494Z,99160.00
2018-12-03T08:53:45.986Z,99150.00
2018-12-03T08:56:15.822Z,99160.00
2018-12-03T08:58:45.344Z,99156.00
2018-12-03T09:01:16.982Z,99153.00
2018-12-03T09:03:56.816Z,99167.00
2018-12-03T09:06:26.244Z,99149.00
2018-12-03T09:08:55.938Z,99149.00
2018-12-03T09:11:25.916Z,99144.00
2018-12-03T09:13:55.608Z,99151.00
2018-12-03T09:16:25.602Z,99155.00
2018-12-03T09:18:55.976Z,99147.00
2018-12-03T09:21:26.056Z,99157.00
2018-12-03T09:24:00.277Z,99159.00
2018-12-03T09:26:30.071Z,99168.00
2018-12-03T09:28:59.510Z,99172.00
2018-12-03T09:31:28.846Z,99172.00
2018-12-03T09:33:59.606Z,99161.00
2018-12-03T09:36:29.930Z,99175.00
2018-12-03T09:39:02.498Z,99173.00
2018-12-03T09:41:31.990Z,99181.00
2018-12-03T09:44:01.236Z,99187.00
2018-12-03T09:46:31.068Z,99183.00
2018-12-03T09:49:00.759Z,99178.00
2018-12-03T09:51:32.193Z,99174.00
2018-12-03T09:54:02.453Z,99177.00
2018-12-03T09:56:35.217Z,99181.00
2018-12-03T09:59:09.592Z,99182.00
2018-12-03T10:01:39.061Z,99162.00
2018-12-03T10:04:12.358Z,99161.00
2018-12-03T10:06:41.800Z,99160.00
2018-12-03T10:09:12.433Z,99165.00
2018-12-03T10:11:42.612Z,99159.00
2018-12-03T10:14:14.972Z,99157.00
2018-12-03T10:16:41.794Z,99156.00
2018-12-03T10:19:11.347Z,99140.00
2018-12-03T10:21:40.985Z,99147.00
2018-12-03T10:24:12.281Z,99148.00
2018-12-03T10:26:41.900Z,99150.00
2018-12-03T10:29:16.060Z,99150.00
2018-12-03T10:31:45.709Z,99155.00
2018-12-03T10:34:17.268Z,99146.00
2018-12-03T10:36:53.596Z,99160.00
2018-12-03T10:39:27.451Z,99147.00
2018-12-03T10:42:00.971Z,99145.00
2018-12-03T10:44:30.622Z,99147.00
2018-12-03T10:47:00.357Z,99146.00
2018-12-03T10:49:29.936Z,99140.00
2018-12-03T10:51:59.449Z,99142.00
2018-12-03T10:54:29.754Z,99150.00
2018-12-03T10:57:03.012Z,99147.00
2018-12-03T10:59:32.468Z,99140.00
2018-12-03T11:04:10.951Z,99142.00
2018-12-03T11:06:40.612Z,99145.00
2018-12-03T11:09:10.367Z,99138.00
2018-12-03T11:11:40.393Z,99142.00
2018-12-03T11:14:10.295Z,99141.00
2018-12-03T11:16:40.464Z,99154.00
2018-12-03T11:19:10.457Z,99158.00
2018-12-03T11:21:40.143Z,99159.00
2018-12-03T11:24:14.288Z,99161.00
2018-12-03T11:26:45.545Z,99152.00
2018-12-03T11:29:16.288Z,99154.00
2018-12-03T11:31:45.948Z,99156.00
2018-12-03T11:34:16.382Z,99158.00
2018-12-03T11:36:48.682Z,99164.00
2018-12-03T11:39:32.216Z,99160.00
2018-12-03T11:42:04.772Z,99163.00
2018-12-03T11:44:34.273Z,99161.00
2018-12-03T11:47:04.164Z,99161.00
2018-12-03T11:49:33.656Z,99158.00
2018-12-03T11:52:03.652Z,99154.00
2018-12-03T11:54:33.510Z,99156.00
2018-12-03T11:57:03.226Z,99157.00
2018-12-03T11:59:32.867Z,99164.00
2018-12-03T12:02:02.432Z,99148.00
2018-12-03T12:04:31.763Z,99146.00
2018-12-03T12:07:01.235Z,99145.00
2018-12-03T12:09:30.844Z,99140.00
2018-12-03T12:12:00.721Z,99145.00
2018-12-03T12:14:30.435Z,99132.00
2018-12-03T12:16:59.857Z,99133.00
2018-12-03T12:19:29.385Z,99133.00
2018-12-03T12:21:58.746Z,99128.00
2018-12-03T12:24:28.337Z,99133.00
2018-12-03T12:26:57.876Z,99122.00
2018-12-03T12:29:27.321Z,99132.00
2018-12-03T12:31:56.860Z,99141.00
2018-12-03T12:34:26.094Z,99134.00
2018-12-03T12:36:55.606Z,99137.00
2018-12-03T12:39:25.020Z,99131.00
2018-12-03T12:41:54.583Z,99134.00
2018-12-03T12:44:24.203Z,99135.00
2018-12-03T12:46:53.897Z,99130.00
2018-12-03T12:49:23.530Z,99130.00
2018-12-03T12:51:53.453Z,99122.00
2018-12-03T12:54:23.386Z,99138.00
2018-12-03T12:56:52.985Z,99134.00
2018-12-03T12:59:22.612Z,99126.00
2018-12-03T13:01:52.202Z,99121.00
2018-12-03T13:04:21.608Z,99128.00
2018-12-03T13:06:50.793Z,99126.00
2018-12-03T13:09:20.339Z,99120.00
2018-12-03T13:11:49.667Z,99124.00
2018-12-03T13:14:19.037Z,99123.00
2018-12-03T13:17:42.114Z,99107.00
2018-12-03T13:20:13.385Z,99096.00
2018-12-03T13:22:43.087Z,99115.00
2018-12-03T13:25:16.260Z,99106.00
2018-12-03T13:27:45.846Z,99110.00
2018-12-03T13:30:17.721Z,99114.00
2018-12-03T13:32:47.942Z,99118.00
2018-12-03T13:35:17.753Z,99116.00
2018-12-03T13:37:47.395Z,99112.00
2018-12-03T13:40:18.190Z,99123.00
2018-12-03T13:42:48.123Z,99108.00
2018-12-03T13:45:25.437Z,99122.00
2018-12-03T13:47:56.767Z,99123.00
2018-12-03T13:50:26.737Z,99121.00
2018-12-03T13:52:56.183Z,99127.00
2018-12-03T13:55:25.972Z,99133.00
2018-12-03T13:57:55.373Z,99136.00
2018-12-03T14:00:26.217Z,99127.00
2018-12-03T14:03:01.933Z,99128.00
2018-12-03T14:05:34.713Z,99133.00
2018-12-03T14:08:16.425Z,99126.00
2018-12-03T14:10:57.051Z,99136.00
2018-12-03T14:13:37.901Z,99135.00
2018-12-03T14:16:13.947Z,99135.00
2018-12-03T14:18:52.944Z,99125.00
2018-12-03T14:21:27.845Z,99125.00
2018-12-03T14:23:58.939Z,99137.00
2018-12-03T14:26:28.998Z,99122.00
2018-12-03T14:28:58.453Z,99136.00
2018-12-03T14:31:28.411Z,99135.00
2018-12-03T14:33:58.365Z,99133.00
2018-12-03T14:36:28.134Z,99131.00
2018-12-03T14:38:58.106Z,99117.00
2018-12-03T14:41:28.229Z,99117.00
2018-12-03T14:43:58.005Z,99135.00
2018-12-03T14:46:28.046Z,99125.00
2018-12-03T14:48:57.647Z,99122.00
2018-12-03T14:51:27.081Z,99129.00
2018-12-03T14:53:56.680Z,99122.00
2018-12-03T14:56:25.850Z,99132.00
2018-12-03T14:58:55.363Z,99125.00
2018-12-03T15:01:25.065Z,99124.00
2018-12-03T15:03:54.433Z,99119.00
2018-12-03T15:06:23.888Z,99128.00
2018-12-03T15:08:53.691Z,99123.00
2018-12-03T15:11:23.347Z,99128.00
2018-12-03T15:13:52.735Z,99130.00
2018-12-03T15:16:21.917Z,99130.00
2018-12-03T15:18:51.501Z,99132.00
2018-12-03T15:21:20.783Z,99129.00
2018-12-03T15:23:50.023Z,99123.00
2018-12-03T15:26:19.264Z,99121.00
2018-12-03T15:28:48.486Z,99127.00
2018-12-03T15:31:17.629Z,99120.00
2018-12-03T15:33:46.705Z,99132.00
2018-12-03T15:36:15.973Z,99133.00
2018-12-03T15:38:45.295Z,99133.00
2018-12-03T15:41:14.674Z,99144.00
2018-12-03T15:43:44.743Z,99138.00
2018-12-03T15:46:14.096Z,99138.00
2018-12-03T15:48:43.575Z,99134.00
2018-12-03T15:51:13.719Z,99132.00
2018-12-03T15:53:44.893Z,99122.00
2018-12-03T15:56:14.292Z,99125.00
2018-12-03T15:58:43.477Z,99133.00
2018-12-03T16:01:14.503Z,99134.00
2018-12-03T16:03:43.938Z,99129.00
2018-12-03T16:06:13.255Z,99132.00
2018-12-03T16:08:42.637Z,99124.00
2018-12-03T16:11:11.740Z,99121.00
2018-12-03T16:13:40.799Z,99126.00
2018-12-03T16:16:10.189Z,99120.00
2018-12-03T16:18:39.469Z,99120.00
2018-12-03T16:21:08.801Z,99119.00
2018-12-03T16:23:38.683Z,99126.00
2018-12-03T16:26:08.075Z,99130.00
2018-12-03T16:28:37.365Z,99129.00
2018-12-03T16:31:06.578Z,99127.00
2018-12-03T16:33:36.243Z,99137.00
2018-12-03T16:36:05.529Z,99133.00
2018-12-03T16:38:34.903Z,99131.00
2018-12-03T16:41:04.187Z,99130.00
2018-12-03T16:43:33.287Z,99115.00
2018-12-03T16:46:02.704Z,99122.00
2018-12-03T16:48:32.016Z,99123.00
2018-12-03T16:51:01.110Z,99129.00
2018-12-03T16:53:31.371Z,99124.00
2018-12-03T16:56:00.760Z,99137.00
2018-12-03T16:58:30.064Z,99126.00
2018-12-03T17:00:59.392Z,99140.00
2018-12-03T17:03:28.582Z,99134.00
2018-12-03T17:05:57.892Z,99123.00
2018-12-03T17:08:27.150Z,99135.00
2018-12-03T17:10:56.282Z,99119.00
2018-12-03T17:13:25.762Z,99123.00
2018-12-03T17:15:54.911Z,99118.00
2018-12-03T17:18:24.194Z,99120.00
2018-12-03T17:21:09.611Z,99113.00
2018-12-03T17:23:52.736Z,99127.00
2018-12-03T17:26:22.292Z,99121.00
2018-12-03T17:28:51.364Z,99110.00
2018-12-03T17:31:20.590Z,99107.00
2018-12-03T17:33:49.792Z,99118.00
2018-12-03T17:36:19.087Z,99114.00
2018-12-03T17:38:48.122Z,99112.00
2018-12-03T17:41:17.553Z,99106.00
2018-12-03T17:43:46.722Z,99099.00
2018-12-03T17:46:16.320Z,99091.00
2018-12-03T17:48:45.467Z,99093.00
2018-12-03T17:51:17.689Z,99097.00
2018-12-03T17:53:47.085Z,99105.00
2018-12-03T17:56:16.167Z,99102.00
2018-12-03T17:58:45.563Z,99107.00
2018-12-03T18:01:14.981Z,99103.00
2018-12-03T18:03:44.154Z,99098.00
2018-12-03T18:06:17.021Z,99095.00
2018-12-03T18:08:44.393Z,99095.00
2018-12-03T18:11:13.836Z,99090.00
2018-12-03T18:13:43.019Z,99092.00
2018-12-03T18:16:13.401Z,99095.00
2018-12-03T18:18:42.477Z,99097.00
2018-12-03T18:21:11.575Z,99099.00
2018-12-03T18:23:40.689Z,99107.00
2018-12-03T18:26:10.053Z,99112.00
2018-12-03T18:28:40.252Z,99111.00
2018-12-03T18:31:09.341Z,99112.00
2018-12-03T18:33:38.687Z,99108.00
2018-12-03T18:36:08.040Z,99124.00
2018-12-03T18:38:37.285Z,99125.00
2018-12-03T18:41:06.544Z,99119.00
2018-12-03T18:43:36.843Z,99113.00
2018-12-03T18:46:06.375Z,99116.00
2018-12-03T18:48:35.718Z,99119.00
2018-12-03T18:51:05.820Z,99115.00
2018-12-03T18:53:37.011Z,99117.00
2018-12-03T18:56:06.456Z,99116.00
2018-12-03T18:58:43.118Z,99114.00
2018-12-03T19:01:12.294Z,99103.00
2018-12-03T19:03:41.523Z,99106.00
2018-12-03T19:06:10.838Z,99119.00
2018-12-03T19:08:39.972Z,99119.00
2018-12-03T19:11:09.312Z,99103.00
2018-12-03T19:13:38.622Z,99112.00
2018-12-03T19:16:07.781Z,99117.00
2018-12-03T19:18:37.143Z,99125.00
2018-12-03T19:21:06.339Z,99124.00
2018-12-03T19:23:35.717Z,99128.00
2018-12-03T19:26:05.047Z,99119.00
2018-12-03T19:28:34.639Z,99116.00
2018-12-03T19:31:04.242Z,99116.00
2018-12-03T19:33:33.592Z,99118.00
2018-12-03T19:36:02.741Z,99119.00
2018-12-03T19:38:31.874Z,99114.00
2018-12-03T19:41:01.374Z,99117.00
2018-12-03T19:43:30.525Z,99116.00
2018-12-03T19:46:00.069Z,99113.00
2018-12-03T19:48:29.774Z,99125.00
2018-12-03T19:50:59.226Z,99108.00
2018-12-03T19:53:28.470Z,99103.00
2018-12-03T19:55:57.845Z,99102.00
2018-12-03T19:58:32.266Z,99106.00
2018-12-03T20:01:01.570Z,99099.00
2018-12-03T20:03:30.634Z,99103.00
2018-12-03T20:05:59.889Z,99105.00
2018-12-03T20:08:29.348Z,99100.00
2018-12-03T20:10:59.377Z,99113.00
2018-12-03T20:13:28.700Z,99104.00
2018-12-03T20:15:57.845Z,99106.00
2018-12-03T20:18:27.221Z,99102.00
2018-12-03T20:21:00.762Z,99108.00
2018-12-03T20:23:40.646Z,99106.00
2018-12-03T20:26:23.190Z,99098.00
2018-12-03T20:30:00.008Z,99098.00
2018-12-03T20:32:41.680Z,99099.00
2018-12-03T20:35:28.366Z,99106.00
2018-12-03T20:38:13.044Z,99107.00
2018-12-03T20:41:54.588Z,99114.00
2018-12-03T20:44:31.567Z,99123.00
2018-12-03T20:47:15.320Z,99107.00
2018-12-03T20:49:53.623Z,99103.00
2018-12-03T20:52:26.271Z,99111.00
2018-12-03T20:54:58.512Z,99124.00
2018-12-03T20:57:27.760Z,99112.00
2018-12-03T20:59:57.223Z,99124.00
2018-12-03T21:02:27.823Z,99125.00
2018-12-03T21:04:57.196Z,99130.00
2018-12-03T21:07:26.395Z,99127.00
2018-12-03T21:09:55.807Z,99125.00
2018-12-03T21:12:25.488Z,99128.00
2018-12-03T21:14:54.766Z,99134.00
2018-12-03T21:17:24.413Z,99122.00
2018-12-03T21:19:59.240Z,99121.00
2018-12-03T21:22:28.538Z,99130.00
2018-12-03T21:24:57.893Z,99127.00
2018-12-03T21:27:27.206Z,99131.00
2018-12-03T21:29:57.204Z,99143.00
2018-12-03T21:32:27.174Z,99144.00
2018-12-03T21:34:56.316Z,99142.00
2018-12-03T21:37:25.648Z,99166.00
2018-12-03T21:39:55.053Z,99176.00
2018-12-03T21:42:24.490Z,99164.00
2018-12-03T21:44:53.676Z,99172.00
2018-12-03T21:47:23.248Z,99176.00
2018-12-03T21:49:52.701Z,99168.00
2018-12-03T21:52:22.036Z,99180.00
2018-12-03T21:54:51.747Z,99173.00
2018-12-03T21:57:20.875Z,99174.00
2018-12-03T21:59:50.300Z,99171.00
2018-12-03T22:02:24.044Z,99178.00
2018-12-03T22:04:50.574Z,99171.00
2018-12-03T22:07:19.963Z,99163.00
2018-12-03T22:09:49.324Z,99176.00
2018-12-03T22:12:18.641Z,99191.00
2018-12-03T22:14:47.855Z,99185.00
2018-12-03T22:17:17.161Z,99186.00
2018-12-03T22:19:46.339Z,99189.00
2018-12-03T22:22:15.799Z,99186.00
2018-12-03T22:24:45.205Z,99190.00
2018-12-03T22:27:14.623Z,99186.00
2018-12-03T22:29:43.836Z,99204.00
2018-12-03T22:32:13.133Z,99219.00
2018-12-03T22:34:42.683Z,99207.00
2018-12-03T22:37:11.983Z,99215.00
2018-12-03T22:39:46.229Z,99228.00
2018-12-03T22:42:12.871Z,99235.00
2018-12-03T22:44:42.339Z,99242.00
2018-12-03T22:47:12.031Z,99247.00
2018-12-03T22:49:41.146Z,99240.00
2018-12-03T22:52:10.659Z,99246.00
2018-12-03T22:54:40.017Z,99244.00
2018-12-03T22:57:09.290Z,99260.00
2018-12-03T22:59:38.620Z,99255.00
2018-12-03T23:02:07.984Z,99277.00
2018-12-03T23:04:40.173Z,99284.00
2018-12-03T23:07:09.793Z,99289.00
2018-12-03T23:09:39.115Z,99298.00
2018-12-03T23:12:08.292Z,99310.00
2018-12-03T23:14:37.450Z,99307.00
2018-12-03T23:17:06.996Z,99317.00
2018-12-03T23:19:36.156Z,99324.00
2018-12-03T23:22:05.287Z,99318.00
2018-12-03T23:24:34.582Z,99329.00
2018-12-03T23:27:03.935Z,99343.00
2018-12-03T23:29:33.368Z,99360.00
2018-12-03T23:32:02.550Z,99362.00
2018-12-03T23:34:32.002Z,99371.00
2018-12-03T23:37:01.118Z,99376.00
2018-12-03T23:39:30.360Z,99380.00
2018-12-03T23:41:59.558Z,99392.00
2018-12-03T23:44:28.859Z,99399.00
2018-12-03T23:46:58.225Z,99400.00
2018-12-03T23:49:27.341Z,99412.00
2018-12-03T23:51:56.490Z,99412.00
2018-12-03T23:54:25.622Z,99427.00
2018-12-03T23:56:54.925Z,99428.00
2018-12-03T23:59:24.174Z,99432.00
